Time;durP1;ratioP1;P1;durP2;ratioP2;P2;SDS_P1;SDS_P2;PMS_P1;PMS_P2;Temp;Humidity;BMP_temperature;BMP_pressure;BME280_temperature;BME280_humidity;BME280_pressure;Samples;Min_cycle;Max_cycle;Signal;HPM_P1;HPM_P2
2023/08/05 00:00:58;;;;;;;12.18;8.02;;;15.60;99.90;;;;;;5020518;28;20403;-53
2023/08/05 00:03:25;;;;;;;11.77;8.38;;;15.60;99.90;;;;;;5016732;28;20454;-51
2023/08/05 00:05:53;;;;;;;10.93;8.00;;;15.60;99.90;;;;;;5015881;28;20048;-51
2023/08/05 00:08:21;;;;;;;12.68;8.48;;;15.60;99.90;;;;;;5018227;28;20046;-52
2023/08/05 00:10:48;;;;;;;10.57;7.75;;;15.70;99.90;;;;;;5016362;28;20350;-47
2023/08/05 00:13:15;;;;;;;12.23;8.10;;;15.70;99.90;;;;;;5020612;28;20108;-52
2023/08/05 00:15:43;;;;;;;10.18;7.35;;;15.70;99.90;;;;;;5022219;28;20422;-57
2023/08/05 00:18:11;;;;;;;17.42;9.63;;;15.70;99.90;;;;;;5013261;28;20049;-55
2023/08/05 00:20:38;;;;;;;11.10;7.90;;;15.70;99.90;;;;;;5026615;28;20069;-52
2023/08/05 00:23:06;;;;;;;13.57;8.75;;;15.70;99.90;;;;;;5015486;28;20041;-50
2023/08/05 00:25:33;;;;;;;17.75;8.82;;;15.70;99.90;;;;;;5015965;28;20045;-54
2023/08/05 00:28:00;;;;;;;15.45;10.13;;;15.70;99.90;;;;;;5015743;28;20112;-51
2023/08/05 00:30:27;;;;;;;16.30;10.45;;;15.70;99.90;;;;;;5011556;28;20497;-48
2023/08/05 00:32:55;;;;;;;11.90;8.82;;;15.70;99.90;;;;;;5019299;28;20073;-53
2023/08/05 00:35:23;;;;;;;15.20;9.63;;;15.70;99.90;;;;;;5014371;28;20046;-49
2023/08/05 00:37:50;;;;;;;15.68;8.73;;;15.70;99.90;;;;;;5016304;28;20045;-48
2023/08/05 00:40:18;;;;;;;11.25;8.35;;;15.70;99.90;;;;;;4999690;28;20064;-54
2023/08/05 00:42:46;;;;;;;12.65;8.40;;;15.70;99.90;;;;;;5023050;28;20041;-53
2023/08/05 00:45:13;;;;;;;13.60;9.25;;;15.70;99.90;;;;;;5014813;28;20059;-51
2023/08/05 00:47:41;;;;;;;13.40;8.43;;;15.70;99.90;;;;;;5017385;28;20076;-51
2023/08/05 00:50:12;;;;;;;16.05;8.98;;;15.70;99.90;;;;;;5016350;28;20052;-51
2023/08/05 00:52:41;;;;;;;11.73;8.20;;;15.70;99.90;;;;;;5013744;28;20042;-50
2023/08/05 00:55:09;;;;;;;12.05;8.57;;;15.70;99.90;;;;;;5023090;28;20060;-51
2023/08/05 00:57:37;;;;;;;13.77;8.65;;;15.70;99.90;;;;;;5021028;28;20449;-49
2023/08/05 01:00:05;;;;;;;15.07;8.23;;;15.60;99.90;;;;;;5019747;28;20053;-53
2023/08/05 01:02:32;;;;;;;12.30;8.02;;;15.60;99.90;;;;;;5017372;28;20060;-51
2023/08/05 01:05:00;;;;;;;11.02;7.13;;;15.60;99.90;;;;;;5021938;28;20033;-50
2023/08/05 01:07:27;;;;;;;10.75;7.68;;;15.60;99.90;;;;;;5018898;28;20510;-52
2023/08/05 01:09:55;;;;;;;12.10;7.57;;;15.60;99.90;;;;;;5021430;28;20461;-54
2023/08/05 01:12:23;;;;;;;11.10;7.40;;;15.60;99.90;;;;;;5020897;28;20120;-50
2023/08/05 01:14:50;;;;;;;9.15;6.53;;;15.60;99.90;;;;;;5015470;28;20104;-54
2023/08/05 01:17:17;;;;;;;9.35;6.25;;;15.60;99.90;;;;;;5021221;28;20408;-49
2023/08/05 01:19:46;;;;;;;8.85;6.55;;;15.60;99.90;;;;;;5017437;28;20426;-48
2023/08/05 01:22:35;;;;;;;11.77;6.32;;;15.60;99.90;;;;;;5017302;28;20069;-48
2023/08/05 01:25:06;;;;;;;10.02;6.57;;;15.60;99.90;;;;;;5024434;28;20049;-52
2023/08/05 01:27:34;;;;;;;9.15;6.45;;;15.60;99.90;;;;;;5019429;28;20121;-50
2023/08/05 01:30:03;;;;;;;12.50;7.45;;;15.50;99.90;;;;;;5015077;28;20080;-52
2023/08/05 01:32:34;;;;;;;10.25;6.63;;;15.50;99.90;;;;;;5016278;28;20038;-52
2023/08/05 01:35:02;;;;;;;13.45;6.13;;;15.50;99.90;;;;;;5023854;28;20042;-49
2023/08/05 01:37:30;;;;;;;9.40;6.55;;;15.40;99.90;;;;;;5013903;28;20580;-49
2023/08/05 01:39:57;;;;;;;12.77;7.35;;;15.40;99.90;;;;;;5019598;28;20080;-51
2023/08/05 01:42:24;;;;;;;10.38;6.45;;;15.40;99.90;;;;;;5017196;28;20049;-51
2023/08/05 01:44:52;;;;;;;9.50;6.57;;;15.40;99.90;;;;;;5014526;28;20092;-50
2023/08/05 01:47:19;;;;;;;11.30;7.63;;;15.30;99.90;;;;;;5014855;28;20137;-48
2023/08/05 01:49:46;;;;;;;10.52;6.60;;;15.30;99.90;;;;;;5015663;28;20048;-52
2023/08/05 01:52:13;;;;;;;10.30;7.13;;;15.30;99.90;;;;;;5019859;28;20042;-51
2023/08/05 01:54:41;;;;;;;11.05;7.10;;;15.30;99.90;;;;;;5026379;28;20045;-50
2023/08/05 01:57:08;;;;;;;11.60;7.07;;;15.30;99.90;;;;;;5024695;28;20476;-53
2023/08/05 01:59:35;;;;;;;11.65;7.75;;;15.20;99.90;;;;;;5017001;28;20117;-52
2023/08/05 02:02:03;;;;;;;12.10;7.25;;;15.20;99.90;;;;;;5015947;28;20053;-53
2023/08/05 02:04:31;;;;;;;12.40;7.60;;;15.20;99.90;;;;;;5018771;28;20374;-53
2023/08/05 02:06:58;;;;;;;10.85;7.72;;;15.20;99.90;;;;;;5027694;28;20098;-56
2023/08/05 02:09:25;;;;;;;11.48;7.70;;;15.20;99.90;;;;;;5021371;28;20101;-49
2023/08/05 02:11:53;;;;;;;15.73;8.07;;;15.10;99.90;;;;;;5021666;28;20513;-48
2023/08/05 02:14:20;;;;;;;11.40;8.05;;;15.10;99.90;;;;;;5017757;28;20056;-54
2023/08/05 02:16:48;;;;;;;10.80;7.80;;;15.10;99.90;;;;;;5023428;28;20049;-50
2023/08/05 02:19:17;;;;;;;13.98;7.35;;;15.10;99.90;;;;;;5016262;28;20046;-53
2023/08/05 02:21:45;;;;;;;12.30;7.40;;;15.20;99.90;;;;;;5017978;28;20096;-57
2023/08/05 02:24:12;;;;;;;12.07;7.65;;;15.20;99.90;;;;;;5018243;28;20053;-50
2023/08/05 02:26:41;;;;;;;11.23;7.32;;;15.20;99.90;;;;;;5017876;28;20109;-50
2023/08/05 02:29:10;;;;;;;12.10;7.60;;;15.20;99.90;;;;;;5016098;28;20068;-51
2023/08/05 02:31:40;;;;;;;12.35;7.05;;;15.10;99.90;;;;;;5019318;28;20401;-50
2023/08/05 02:34:07;;;;;;;11.10;7.60;;;15.10;99.90;;;;;;5023525;28;20501;-54
2023/08/05 02:36:34;;;;;;;12.80;7.97;;;15.00;99.90;;;;;;5018530;28;20407;-50
2023/08/05 02:39:02;;;;;;;12.77;7.88;;;15.00;99.90;;;;;;5017639;28;20048;-51
2023/08/05 02:41:30;;;;;;;13.15;7.88;;;15.00;99.90;;;;;;5019636;28;20069;-49
2023/08/05 02:43:57;;;;;;;13.35;7.78;;;15.10;99.90;;;;;;5021080;28;20052;-50
2023/08/05 02:46:24;;;;;;;11.25;7.65;;;15.10;99.90;;;;;;5015992;28;20038;-46
2023/08/05 02:48:52;;;;;;;11.50;7.57;;;15.10;99.90;;;;;;5021634;28;20045;-49
2023/08/05 02:51:19;;;;;;;9.88;7.50;;;15.10;99.90;;;;;;5017528;28;20054;-48
2023/08/05 02:53:46;;;;;;;11.15;7.40;;;15.20;99.90;;;;;;5020185;28;20482;-49
2023/08/05 02:56:14;;;;;;;11.15;8.10;;;15.20;99.90;;;;;;5018883;28;20061;-49
2023/08/05 02:58:41;;;;;;;9.77;7.47;;;15.10;99.90;;;;;;5027740;28;20045;-46
2023/08/05 03:01:09;;;;;;;13.90;8.48;;;15.20;99.90;;;;;;5025585;28;20132;-53
2023/08/05 03:03:37;;;;;;;12.32;7.75;;;15.20;99.90;;;;;;5028973;28;20041;-50
2023/08/05 03:06:04;;;;;;;12.57;8.30;;;15.20;99.90;;;;;;5027727;28;20038;-53
2023/08/05 03:08:32;;;;;;;12.52;7.75;;;15.20;99.90;;;;;;5027455;28;20046;-53
2023/08/05 03:11:00;;;;;;;12.13;7.65;;;15.20;99.90;;;;;;5013495;28;20140;-48
2023/08/05 03:13:29;;;;;;;11.50;8.10;;;15.20;99.90;;;;;;5026072;28;20046;-51
2023/08/05 03:16:11;;;;;;;11.40;7.13;;;15.20;99.90;;;;;;5027167;28;20049;-53
2023/08/05 03:18:51;;;;;;;12.43;7.15;;;15.30;99.90;;;;;;5026829;28;20068;-53
2023/08/05 03:21:19;;;;;;;10.45;6.55;;;15.30;99.90;;;;;;5026443;28;20136;-54
2023/08/05 03:23:46;;;;;;;11.23;7.10;;;15.30;99.90;;;;;;5028470;28;20449;-50
2023/08/05 03:26:13;;;;;;;11.65;7.32;;;15.30;99.90;;;;;;5027401;28;20045;-48
2023/08/05 03:28:41;;;;;;;12.35;7.82;;;15.30;99.90;;;;;;5027441;28;20045;-52
2023/08/05 03:31:09;;;;;;;10.68;7.20;;;15.30;99.90;;;;;;5016817;28;20094;-54
2023/08/05 03:33:36;;;;;;;12.18;7.72;;;15.30;99.90;;;;;;5021209;28;20494;-53
2023/08/05 03:36:05;;;;;;;14.80;7.90;;;15.30;99.90;;;;;;5025149;28;20038;-51
2023/08/05 03:38:33;;;;;;;10.30;6.60;;;15.30;99.90;;;;;;5026990;28;20410;-53
2023/08/05 03:41:04;;;;;;;12.65;7.50;;;15.40;99.90;;;;;;5024294;28;20362;-55
2023/08/05 03:43:32;;;;;;;11.02;7.03;;;15.40;99.90;;;;;;5026636;28;20045;-50
2023/08/05 03:46:02;;;;;;;9.68;6.63;;;15.30;99.90;;;;;;5018340;28;20140;-52
2023/08/05 03:48:29;;;;;;;11.55;7.15;;;15.40;99.90;;;;;;5025276;28;20052;-50
2023/08/05 03:50:57;;;;;;;10.57;7.35;;;15.30;99.90;;;;;;5025715;28;20034;-59
2023/08/05 03:53:25;;;;;;;10.90;7.72;;;15.30;99.90;;;;;;5025507;28;20037;-51
2023/08/05 03:55:53;;;;;;;13.48;7.72;;;15.30;99.90;;;;;;5026776;28;20170;-55
2023/08/05 03:58:21;;;;;;;10.38;7.70;;;15.20;99.90;;;;;;5025073;28;20049;-49
2023/08/05 04:00:51;;;;;;;11.15;7.45;;;15.20;99.90;;;;;;5022933;28;20317;-47
2023/08/05 04:03:19;;;;;;;13.30;7.82;;;15.20;99.90;;;;;;5025792;28;20045;-50
2023/08/05 04:05:47;;;;;;;10.65;7.32;;;15.10;99.90;;;;;;5025937;28;20033;-51
2023/08/05 04:08:14;;;;;;;10.40;7.20;;;15.10;99.90;;;;;;5027287;28;20068;-51
2023/08/05 04:10:41;;;;;;;11.30;8.00;;;15.10;99.90;;;;;;5020165;28;20320;-49
2023/08/05 04:13:11;;;;;;;11.60;7.70;;;15.10;99.90;;;;;;5026740;28;20077;-52
2023/08/05 04:15:39;;;;;;;11.70;7.55;;;15.10;99.90;;;;;;5025886;28;20149;-51
2023/08/05 04:18:07;;;;;;;12.60;8.70;;;15.10;99.90;;;;;;5026369;28;20045;-49
2023/08/05 04:20:36;;;;;;;10.38;7.82;;;15.00;99.90;;;;;;5021906;28;20533;-54
2023/08/05 04:23:05;;;;;;;13.07;8.70;;;15.00;99.90;;;;;;5025779;28;20053;-51
2023/08/05 04:25:34;;;;;;;11.75;7.88;;;15.00;99.90;;;;;;5022453;28;20050;-52
2023/08/05 04:28:01;;;;;;;11.48;8.07;;;15.00;99.90;;;;;;5019844;28;20049;-50
2023/08/05 04:30:28;;;;;;;12.95;8.00;;;15.10;99.90;;;;;;5016554;28;20067;-52
2023/08/05 04:32:56;;;;;;;11.07;8.15;;;15.00;99.90;;;;;;5026844;28;20052;-52
2023/08/05 04:35:23;;;;;;;12.30;8.20;;;15.10;99.90;;;;;;5026243;28;20111;-53
2023/08/05 04:37:50;;;;;;;11.93;8.00;;;15.00;99.90;;;;;;5027044;28;20119;-55
2023/08/05 04:40:18;;;;;;;17.80;9.10;;;15.10;99.90;;;;;;5025102;28;20557;-50
2023/08/05 04:42:45;;;;;;;12.13;8.27;;;15.10;99.90;;;;;;5027778;28;20046;-54
2023/08/05 04:45:13;;;;;;;13.20;8.88;;;15.10;99.90;;;;;;5026074;28;20053;-54
2023/08/05 04:47:41;;;;;;;13.75;9.40;;;15.10;99.90;;;;;;5020142;28;20042;-52
2023/08/05 04:50:09;;;;;;;12.13;7.90;;;15.10;99.90;;;;;;5024521;28;20083;-48
2023/08/05 04:52:36;;;;;;;12.93;8.70;;;15.20;99.90;;;;;;5020685;28;20549;-49
2023/08/05 04:55:10;;;;;;;13.77;8.38;;;15.30;99.90;;;;;;5025649;28;20056;-54
2023/08/05 04:57:37;;;;;;;11.90;9.07;;;15.30;99.90;;;;;;5022318;28;20053;-55
2023/08/05 05:00:05;;;;;;;10.68;8.93;;;15.30;99.90;;;;;;5024640;28;20049;-49
2023/08/05 05:02:32;;;;;;;11.82;8.32;;;15.40;99.90;;;;;;5021063;28;20092;-49
2023/08/05 05:05:02;;;;;;;12.27;8.77;;;15.40;99.90;;;;;;5018766;28;20061;-50
2023/08/05 05:07:30;;;;;;;13.10;9.18;;;15.40;99.90;;;;;;5020532;28;20088;-52
2023/08/05 05:09:57;;;;;;;9.68;7.30;;;15.50;99.90;;;;;;5026385;28;20049;-52
2023/08/05 05:12:24;;;;;;;11.35;8.30;;;15.60;99.90;;;;;;5027930;28;20045;-50
2023/08/05 05:15:12;;;;;;;11.02;8.27;;;15.60;99.90;;;;;;5013003;28;20057;-51
2023/08/05 05:17:39;;;;;;;11.15;7.45;;;15.70;99.90;;;;;;5028235;28;20053;-51
2023/08/05 05:20:07;;;;;;;11.30;8.00;;;15.70;99.90;;;;;;5025602;28;20045;-53
2023/08/05 05:22:34;;;;;;;10.68;7.30;;;15.70;99.90;;;;;;5020855;28;20103;-51
2023/08/05 05:25:02;;;;;;;11.27;7.68;;;15.70;99.90;;;;;;5029019;28;20072;-54
2023/08/05 05:27:29;;;;;;;11.75;7.18;;;15.70;99.90;;;;;;5022015;28;20127;-54
2023/08/05 05:29:57;;;;;;;11.25;7.55;;;15.80;99.90;;;;;;5029034;28;20041;-52
2023/08/05 05:32:24;;;;;;;9.68;6.78;;;15.90;99.90;;;;;;5024495;28;20136;-48
2023/08/05 05:34:51;;;;;;;13.48;8.15;;;15.90;99.90;;;;;;5031024;28;20544;-48
2023/08/05 05:37:19;;;;;;;12.25;7.30;;;15.90;99.90;;;;;;5031133;28;20030;-51
2023/08/05 05:39:47;;;;;;;9.95;7.53;;;15.90;99.90;;;;;;5023119;28;20076;-48
2023/08/05 05:42:15;;;;;;;10.00;6.72;;;15.90;99.90;;;;;;5023412;28;20061;-53
2023/08/05 05:44:46;;;;;;;12.93;7.45;;;15.90;99.90;;;;;;5028138;28;20482;-51
2023/08/05 05:47:15;;;;;;;;;;;16.10;99.90;;;;;;5028612;28;20045;-50
2023/08/05 05:49:42;;;;;;;9.45;6.90;;;16.20;99.90;;;;;;5019288;28;19957;-54
2023/08/05 05:52:13;;;;;;;12.45;5.78;;;16.30;99.90;;;;;;5021896;28;20049;-49
2023/08/05 05:54:40;;;;;;;13.18;6.50;;;16.30;99.90;;;;;;5030400;28;20045;-51
2023/08/05 05:57:08;;;;;;;12.15;6.22;;;16.40;99.90;;;;;;5033756;28;20049;-50
2023/08/05 05:59:35;;;;;;;9.05;5.95;;;16.50;99.90;;;;;;5027588;28;20351;-56
2023/08/05 06:02:02;;;;;;;8.15;5.90;;;16.50;99.90;;;;;;5027738;28;20075;-53
2023/08/05 06:04:30;;;;;;;9.30;6.03;;;16.60;99.90;;;;;;5023433;28;20049;-55
2023/08/05 06:06:57;;;;;;;9.18;6.15;;;16.60;99.90;;;;;;5029975;28;20045;-53
2023/08/05 06:09:26;;;;;;;10.15;5.63;;;16.60;99.90;;;;;;5026146;28;20041;-53
2023/08/05 06:11:53;;;;;;;10.32;6.30;;;16.70;99.90;;;;;;5028802;28;20448;-46
2023/08/05 06:14:21;;;;;;;10.32;5.80;;;16.80;99.90;;;;;;5025292;28;20566;-46
2023/08/05 06:16:48;;;;;;;10.00;5.63;;;16.90;99.90;;;;;;5023645;28;20048;-51
2023/08/05 06:19:16;;;;;;;7.63;5.88;;;16.90;99.90;;;;;;5022466;28;20057;-48
2023/08/05 06:21:44;;;;;;;10.45;6.05;;;16.90;99.90;;;;;;5026557;28;20107;-50
2023/08/05 06:24:11;;;;;;;10.70;5.82;;;16.90;99.90;;;;;;5020521;28;20053;-49
2023/08/05 06:26:39;;;;;;;10.90;5.80;;;17.10;99.90;;;;;;5025917;28;20111;-49
2023/08/05 06:29:06;;;;;;;8.93;5.85;;;17.10;99.90;;;;;;5020733;28;20517;-49
2023/08/05 06:31:34;;;;;;;7.93;5.63;;;17.10;99.90;;;;;;5028340;28;20230;-49
2023/08/05 06:34:01;;;;;;;9.18;5.88;;;17.10;99.90;;;;;;5028603;28;20079;-58
2023/08/05 06:36:28;;;;;;;9.95;5.38;;;17.20;99.90;;;;;;5027687;28;20049;-50
2023/08/05 06:38:56;;;;;;;8.68;5.13;;;17.20;99.90;;;;;;5026642;28;20371;-53
2023/08/05 06:41:23;;;;;;;7.82;5.32;;;17.40;99.90;;;;;;5028443;28;20472;-49
2023/08/05 06:43:51;;;;;;;10.02;5.22;;;17.50;99.90;;;;;;5027236;28;20037;-56
2023/08/05 06:46:19;;;;;;;8.00;5.35;;;17.50;99.90;;;;;;5031199;28;20160;-50
2023/08/05 06:48:46;;;;;;;9.02;5.75;;;17.50;99.90;;;;;;5030817;28;20033;-54
2023/08/05 06:51:14;;;;;;;7.80;5.40;;;17.50;99.90;;;;;;5027620;28;20558;-49
2023/08/05 06:53:44;;;;;;;7.65;4.93;;;17.40;99.90;;;;;;5030261;28;20069;-52
2023/08/05 06:56:11;;;;;;;10.25;5.95;;;17.50;99.90;;;;;;5031045;28;20098;-55
2023/08/05 06:58:38;;;;;;;9.13;5.18;;;17.40;99.90;;;;;;5021193;28;21408;-51
2023/08/05 07:01:06;;;;;;;7.38;5.20;;;17.30;99.90;;;;;;5019726;28;20042;-54
2023/08/05 07:03:33;;;;;;;9.43;5.80;;;17.40;99.90;;;;;;5027777;28;20119;-52
2023/08/05 07:06:01;;;;;;;12.63;5.40;;;17.20;99.90;;;;;;5026603;28;20050;-50
2023/08/05 07:08:28;;;;;;;8.20;5.00;;;17.20;99.90;;;;;;5028475;28;20434;-49
2023/08/05 07:10:56;;;;;;;7.88;5.57;;;17.30;99.90;;;;;;5021857;28;20050;-48
2023/08/05 07:13:27;;;;;;;7.72;5.32;;;17.30;99.90;;;;;;5019224;28;20041;-54
2023/08/05 07:16:01;;;;;;;7.22;5.70;;;17.40;99.90;;;;;;5029477;28;20120;-48
2023/08/05 07:18:29;;;;;;;9.32;5.28;;;17.40;99.90;;;;;;5027833;28;20053;-47
2023/08/05 07:20:57;;;;;;;8.20;5.18;;;17.50;99.90;;;;;;5020419;28;20434;-50
2023/08/05 07:23:25;;;;;;;8.30;5.85;;;17.60;99.90;;;;;;5021491;28;20056;-56
2023/08/05 07:25:53;;;;;;;11.15;5.40;;;17.70;99.90;;;;;;5023368;28;20033;-51
2023/08/05 07:28:20;;;;;;;8.07;4.78;;;17.80;99.90;;;;;;5022508;28;20069;-54
2023/08/05 07:30:47;;;;;;;8.13;5.28;;;17.80;99.90;;;;;;5015159;28;20104;-53
2023/08/05 07:33:16;;;;;;;6.53;4.90;;;17.90;99.90;;;;;;5025295;28;20053;-52
2023/08/05 07:35:44;;;;;;;7.78;5.47;;;17.90;99.90;;;;;;5025664;28;20092;-57
2023/08/05 07:38:11;;;;;;;11.02;4.88;;;18.00;99.90;;;;;;5026410;28;20131;-56
2023/08/05 07:40:40;;;;;;;8.10;5.35;;;18.00;99.90;;;;;;5025812;28;20561;-51
2023/08/05 07:43:09;;;;;;;7.85;4.70;;;18.10;99.90;;;;;;5019498;28;20056;-52
2023/08/05 07:45:36;;;;;;;11.52;6.20;;;18.30;99.90;;;;;;5026803;28;20056;-54
2023/08/05 07:48:08;;;;;;;9.63;5.45;;;18.40;99.90;;;;;;5026560;28;20076;-57
2023/08/05 07:50:35;;;;;;;7.28;4.65;;;18.50;99.90;;;;;;5024026;28;20162;-58
2023/08/05 07:53:05;;;;;;;8.82;5.00;;;18.70;99.90;;;;;;5024306;28;20064;-53
2023/08/05 07:55:34;;;;;;;10.70;5.07;;;18.60;99.90;;;;;;5027412;28;20513;-54
2023/08/05 07:58:04;;;;;;;10.50;5.00;;;18.70;99.90;;;;;;5026396;28;20419;-54
2023/08/05 08:00:33;;;;;;;7.70;5.10;;;18.80;99.90;;;;;;5022310;28;20045;-48
2023/08/05 08:03:00;;;;;;;6.35;4.88;;;18.90;99.90;;;;;;5026293;28;20041;-50
2023/08/05 08:05:28;;;;;;;8.07;5.95;;;19.00;99.90;;;;;;5029138;28;20562;-49
2023/08/05 08:07:56;;;;;;;8.60;5.45;;;18.90;99.90;;;;;;5025289;28;20041;-53
2023/08/05 08:10:24;;;;;;;11.63;5.95;;;19.00;99.90;;;;;;5025151;28;20501;-53
2023/08/05 08:12:53;;;;;;;8.93;5.60;;;18.90;99.90;;;;;;5023858;28;20117;-49
2023/08/05 08:15:20;;;;;;;7.60;4.97;;;19.10;99.90;;;;;;5027948;28;20041;-56
2023/08/05 08:17:48;;;;;;;10.20;5.25;;;19.20;99.90;;;;;;5025534;28;20135;-52
2023/08/05 08:20:15;;;;;;;8.55;4.78;;;19.30;99.90;;;;;;5019195;28;20426;-54
2023/08/05 08:22:42;;;;;;;7.78;5.38;;;19.20;99.90;;;;;;5023933;28;20067;-54
2023/08/05 08:25:10;;;;;;;8.45;5.57;;;19.50;99.90;;;;;;5016671;28;20084;-49
2023/08/05 08:27:37;;;;;;;7.88;5.30;;;19.80;99.90;;;;;;5025277;28;20123;-51
2023/08/05 08:30:05;;;;;;;7.65;4.78;;;19.70;99.90;;;;;;5025388;28;20044;-52
2023/08/05 08:32:33;;;;;;;8.35;4.93;;;20.00;99.90;;;;;;5020394;28;20473;-50
2023/08/05 08:35:00;;;;;;;7.88;5.50;;;20.00;99.90;;;;;;5025435;28;20529;-50
2023/08/05 08:37:27;;;;;;;7.90;4.70;;;19.90;99.90;;;;;;5027955;28;20045;-49
2023/08/05 08:39:55;;;;;;;7.00;4.75;;;19.90;99.90;;;;;;5026563;28;20145;-49
2023/08/05 08:42:25;;;;;;;7.13;5.13;;;20.10;99.90;;;;;;5024663;28;20474;-52
2023/08/05 08:44:53;;;;;;;6.18;5.10;;;20.30;99.90;;;;;;5021591;28;20426;-52
2023/08/05 08:47:22;;;;;;;8.60;5.10;;;20.40;99.90;;;;;;5022714;28;20045;-51
2023/08/05 08:49:52;;;;;;;8.45;4.82;;;20.70;99.90;;;;;;5020483;28;20747;-54
2023/08/05 08:52:20;;;;;;;7.72;5.03;;;20.70;99.90;;;;;;5023942;28;20204;-55
2023/08/05 08:54:50;;;;;;;7.05;5.00;;;20.60;99.90;;;;;;5018234;28;20441;-46
2023/08/05 08:57:18;;;;;;;8.00;5.28;;;20.60;99.90;;;;;;5026662;28;20081;-52
2023/08/05 08:59:45;;;;;;;11.55;4.78;;;20.70;99.90;;;;;;5022037;28;20160;-53
2023/08/05 09:02:18;;;;;;;10.52;5.28;;;20.70;99.90;;;;;;5030694;28;20432;-56
2023/08/05 09:04:47;;;;;;;9.15;5.32;;;20.80;99.90;;;;;;5029108;28;20135;-48
2023/08/05 09:07:14;;;;;;;5.95;4.80;;;20.60;99.90;;;;;;5031375;28;20053;-50
2023/08/05 09:09:46;;;;;;;8.63;5.45;;;20.50;99.90;;;;;;5029868;28;20073;-51
2023/08/05 09:12:15;;;;;;;7.07;4.90;;;20.50;99.90;;;;;;5030704;28;20140;-51
2023/08/05 09:14:42;;;;;;;8.85;5.15;;;20.80;99.90;;;;;;5029429;28;20293;-51
2023/08/05 09:17:14;;;;;;;9.50;4.72;;;20.80;99.90;;;;;;5026741;28;20049;-50
2023/08/05 09:19:42;;;;;;;6.18;5.07;;;21.20;99.90;;;;;;5029346;28;20068;-54
2023/08/05 09:22:10;;;;;;;6.07;4.95;;;21.50;99.90;;;;;;5028482;28;20061;-52
2023/08/05 09:24:37;;;;;;;8.30;5.00;;;21.20;99.90;;;;;;5029237;28;20502;-53
2023/08/05 09:27:05;;;;;;;7.45;5.03;;;21.40;99.90;;;;;;5023118;28;20045;-52
2023/08/05 09:29:36;;;;;;;9.70;5.00;;;21.40;99.90;;;;;;5024581;28;20069;-53
2023/08/05 09:32:04;;;;;;;8.35;4.97;;;21.70;99.90;;;;;;5027736;28;20049;-54
2023/08/05 09:34:37;;;;;;;6.30;4.57;;;21.30;99.90;;;;;;5028751;28;20055;-53
2023/08/05 09:37:06;;;;;;;7.57;5.60;;;21.50;99.90;;;;;;5028611;28;20053;-50
2023/08/05 09:39:51;;;;;;;7.50;5.40;;;21.30;99.90;;;;;;5030016;28;20075;-55
2023/08/05 09:42:26;;;;;;;9.50;5.32;;;21.30;99.90;;;;;;5030702;28;20127;-46
2023/08/05 09:44:57;;;;;;;7.35;5.18;;;21.20;99.90;;;;;;5022719;28;20048;-50
2023/08/05 09:47:31;;;;;;;8.48;5.38;;;21.40;99.90;;;;;;5026603;28;20046;-52
2023/08/05 09:50:04;;;;;;;7.18;5.25;;;21.40;99.90;;;;;;5023527;28;20049;-51
2023/08/05 09:52:33;;;;;;;12.25;8.52;;;21.60;99.90;;;;;;5028721;28;20053;-52
2023/08/05 09:55:04;;;;;;;9.82;6.10;;;21.80;99.90;;;;;;5028937;28;20050;-52
2023/08/05 09:57:33;;;;;;;6.88;5.35;;;21.80;99.90;;;;;;5028761;28;20064;-49
2023/08/05 10:00:03;;;;;;;6.82;4.70;;;22.00;99.90;;;;;;5024702;28;20495;-53
2023/08/05 10:02:34;;;;;;;5.85;4.68;;;22.10;99.90;;;;;;5021200;28;20049;-49
2023/08/05 10:05:02;;;;;;;6.72;4.65;;;22.30;99.90;;;;;;5027434;28;20050;-51
2023/08/05 10:07:30;;;;;;;7.30;5.22;;;22.40;99.90;;;;;;5027852;28;20510;-48
2023/08/05 10:09:58;;;;;;;9.02;4.82;;;22.50;99.90;;;;;;5029321;28;20138;-46
2023/08/05 10:12:30;;;;;;;7.07;4.90;;;22.60;99.90;;;;;;5025933;28;20046;-52
2023/08/05 10:14:59;;;;;;;7.07;4.80;;;22.40;99.90;;;;;;5027386;28;20048;-45
2023/08/05 10:17:28;;;;;;;5.97;4.68;;;22.10;99.90;;;;;;5023134;28;20057;-52
2023/08/05 10:19:55;;;;;;;6.88;5.03;;;21.80;99.90;;;;;;5029200;28;20042;-54
2023/08/05 10:22:24;;;;;;;7.68;4.88;;;22.00;99.90;;;;;;5027258;28;20057;-51
2023/08/05 10:25:00;;;;;;;8.50;5.25;;;22.60;99.90;;;;;;5027140;28;20049;-46
2023/08/05 10:27:36;;;;;;;5.82;4.47;;;22.80;99.90;;;;;;5029130;28;20041;-49
2023/08/05 10:30:15;;;;;;;6.88;5.05;;;22.60;99.90;;;;;;5027109;28;20081;-51
2023/08/05 10:32:55;;;;;;;7.20;5.22;;;23.00;99.90;;;;;;5022317;28;20046;-51
2023/08/05 10:35:31;;;;;;;10.00;5.07;;;22.60;99.90;;;;;;5026977;28;20087;-53
2023/08/05 10:38:05;;;;;;;5.55;4.38;;;22.70;99.90;;;;;;5026751;28;20084;-49
2023/08/05 10:40:41;;;;;;;8.30;5.47;;;23.10;99.90;;;;;;5028396;28;20127;-57
2023/08/05 10:43:10;;;;;;;8.18;5.20;;;23.10;99.90;;;;;;5026925;28;20077;-50
2023/08/05 10:45:40;;;;;;;9.82;5.72;;;23.00;99.90;;;;;;5027311;28;20115;-50
2023/08/05 10:48:09;;;;;;;6.70;4.97;;;23.10;99.90;;;;;;5028433;28;20570;-52
2023/08/05 10:50:39;;;;;;;6.38;4.82;;;23.10;99.90;;;;;;5025728;28;20049;-49
2023/08/05 10:53:13;;;;;;;6.53;4.78;;;23.10;99.90;;;;;;5028380;28;20049;-53
2023/08/05 10:55:48;;;;;;;5.60;4.80;;;23.30;99.90;;;;;;5026483;28;20080;-54
2023/08/05 10:58:21;;;;;;;7.10;4.50;;;23.50;99.90;;;;;;5027989;28;20132;-50
2023/08/05 11:00:59;;;;;;;5.93;4.40;;;23.70;99.90;;;;;;5025787;28;20049;-51
2023/08/05 11:03:31;;;;;;;8.18;4.45;;;23.90;99.90;;;;;;5022863;28;20549;-52
2023/08/05 11:06:06;;;;;;;7.32;4.63;;;24.10;99.90;;;;;;5027062;28;20046;-53
2023/08/05 11:08:34;;;;;;;7.80;4.70;;;24.00;99.90;;;;;;5021713;28;20425;-51
2023/08/05 11:11:07;;;;;;;8.27;5.05;;;24.10;99.90;;;;;;5026398;28;20065;-51
2023/08/05 11:13:37;;;;;;;6.18;5.07;;;23.90;99.90;;;;;;5021001;28;20053;-51
2023/08/05 11:16:08;;;;;;;8.32;5.15;;;23.70;99.90;;;;;;5026876;28;20046;-49
2023/08/05 11:18:37;;;;;;;;;;;23.60;99.90;;;;;;5026010;28;20049;-51
2023/08/05 11:21:07;;;;;;;7.35;5.00;;;23.80;99.90;;;;;;5027734;28;20384;-54
2023/08/05 11:23:39;;;;;;;6.25;4.93;;;23.50;99.90;;;;;;5029196;28;20525;-51
2023/08/05 11:26:08;;;;;;;7.78;4.65;;;23.40;99.90;;;;;;5026052;28;20216;-47
2023/08/05 11:28:41;;;;;;;6.00;4.70;;;23.60;99.90;;;;;;5028237;28;20052;-56
2023/08/05 11:31:08;;;;;;;9.13;5.43;;;23.60;99.90;;;;;;5027079;28;20500;-53
2023/08/05 11:33:36;;;;;;;8.75;5.82;;;23.70;99.90;;;;;;5027582;28;20502;-50
2023/08/05 11:36:05;;;;;;;6.28;5.43;;;23.80;99.90;;;;;;5027311;28;20037;-50
2023/08/05 11:38:32;;;;;;;5.63;4.32;;;23.80;99.90;;;;;;5025786;28;20037;-47
2023/08/05 11:41:00;;;;;;;5.95;4.55;;;23.90;99.90;;;;;;5026786;28;20532;-49
2023/08/05 11:43:27;;;;;;;7.75;4.90;;;23.70;99.90;;;;;;5019995;28;20083;-49
2023/08/05 11:45:55;;;;;;;7.10;4.60;;;23.70;99.90;;;;;;5025717;28;20509;-51
2023/08/05 11:48:27;;;;;;;7.95;5.00;;;23.90;99.90;;;;;;5026699;28;20044;-54
2023/08/05 11:50:59;;;;;;;8.80;4.50;;;23.90;99.90;;;;;;5026277;28;20092;-46
2023/08/05 11:53:28;;;;;;;6.00;4.55;;;24.00;99.90;;;;;;5023237;28;20414;-50
2023/08/05 11:55:56;;;;;;;8.10;4.40;;;24.20;99.90;;;;;;5022420;28;20111;-50
2023/08/05 11:58:23;;;;;;;6.30;4.82;;;23.90;99.90;;;;;;5029816;28;20045;-52
2023/08/05 12:00:52;;;;;;;6.07;4.47;;;24.20;99.90;;;;;;5024844;28;20099;-56
2023/08/05 12:03:20;;;;;;;8.02;4.70;;;24.20;99.90;;;;;;5027014;28;20053;-48
2023/08/05 12:05:48;;;;;;;5.25;4.40;;;24.80;99.90;;;;;;5020701;28;20129;-48
2023/08/05 12:08:47;;;;;;;5.35;4.35;;;25.10;99.90;;;;;;5027584;28;20041;-51
2023/08/05 12:11:14;;;;;;;6.70;4.25;;;25.10;99.90;;;;;;5015194;28;20088;-59
2023/08/05 12:13:44;;;;;;;6.45;4.28;;;24.40;99.90;;;;;;5022432;28;20067;-50
2023/08/05 12:16:18;;;;;;;5.53;3.70;;;24.40;99.90;;;;;;5024903;28;20105;-53
2023/08/05 12:18:46;;;;;;;5.30;3.67;;;24.50;99.90;;;;;;5027683;28;20131;-51
2023/08/05 12:21:14;;;;;;;5.18;3.75;;;24.40;99.90;;;;;;5028092;28;20122;-48
2023/08/05 12:23:41;;;;;;;7.40;4.00;;;24.40;99.90;;;;;;5030064;28;20045;-48
2023/08/05 12:26:10;;;;;;;6.57;4.45;;;24.20;99.90;;;;;;5021109;28;20053;-53
2023/08/05 12:28:38;;;;;;;7.05;4.00;;;24.30;99.90;;;;;;5026962;28;20369;-52
2023/08/05 12:31:06;;;;;;;6.35;3.90;;;24.00;99.90;;;;;;5024081;28;20498;-53
2023/08/05 12:33:33;;;;;;;8.52;4.00;;;24.00;99.90;;;;;;5021297;28;20055;-52
2023/08/05 12:36:01;;;;;;;5.93;4.00;;;24.10;99.90;;;;;;5027319;28;20057;-45
2023/08/05 12:38:28;;;;;;;5.40;3.85;;;23.90;99.90;;;;;;5024418;28;20064;-50
2023/08/05 12:40:55;;;;;;;6.53;3.90;;;23.80;99.90;;;;;;5024646;28;20049;-53
2023/08/05 12:43:23;;;;;;;4.70;3.70;;;23.90;99.90;;;;;;5023528;28;20510;-50
2023/08/05 12:45:50;;;;;;;5.68;4.03;;;24.10;99.90;;;;;;5026088;28;20084;-52
2023/08/05 12:48:19;;;;;;;5.30;3.88;;;24.10;99.90;;;;;;5025792;28;20060;-56
2023/08/05 12:50:50;;;;;;;7.97;4.25;;;24.20;99.90;;;;;;5026012;28;20069;-48